createdAt,value
2022-12-17T00:00:21.955Z,18.47
2022-12-17T00:04:05.840Z,18.70
2022-12-17T00:07:48.559Z,18.67
2022-12-17T00:11:29.738Z,18.97
2022-12-17T00:15:11.582Z,17.67
2022-12-17T00:18:54.031Z,17.30
2022-12-17T00:22:37.736Z,17.17
2022-12-17T00:26:18.837Z,16.50
2022-12-17T00:30:00.829Z,15.23
2022-12-17T00:33:43.559Z,14.90
2022-12-17T00:37:26.582Z,16.50
2022-12-17T00:41:11.584Z,15.50
2022-12-17T00:44:53.685Z,16.17
2022-12-17T00:48:37.765Z,14.97
2022-12-17T00:52:20.622Z,18.00
2022-12-17T00:56:03.103Z,17.20
2022-12-17T00:59:44.633Z,15.93
2022-12-17T01:03:28.622Z,16.73
2022-12-17T01:07:11.896Z,16.67
2022-12-17T01:10:54.767Z,14.20
2022-12-17T01:14:39.621Z,15.07
2022-12-17T01:18:23.978Z,15.87
2022-12-17T01:22:05.850Z,16.90
2022-12-17T01:25:46.825Z,14.97
2022-12-17T01:29:28.918Z,14.53
2022-12-17T01:33:12.653Z,14.67
2022-12-17T01:36:54.212Z,13.47
2022-12-17T01:40:36.668Z,15.23
2022-12-17T01:44:17.465Z,15.33
2022-12-17T01:48:04.905Z,15.83
2022-12-17T01:51:49.667Z,16.73
2022-12-17T01:55:31.706Z,15.60
2022-12-17T01:59:14.698Z,14.50
2022-12-17T02:02:56.815Z,14.90
2022-12-17T02:06:44.663Z,17.33
2022-12-17T02:10:41.835Z,16.17
2022-12-17T02:14:35.416Z,16.73
2022-12-17T02:18:20.690Z,15.67
2022-12-17T02:22:09.701Z,15.47
2022-12-17T02:26:06.703Z,17.00
2022-12-17T02:29:55.702Z,17.40
2022-12-17T02:33:38.552Z,16.13
2022-12-17T02:37:35.688Z,15.93
2022-12-17T02:41:14.430Z,16.67
2022-12-17T02:44:59.726Z,21.20
2022-12-17T02:48:45.863Z,22.30
2022-12-17T02:52:35.149Z,22.97
2022-12-17T02:56:17.746Z,18.43
2022-12-17T03:00:00.435Z,16.83
2022-12-17T03:03:48.694Z,15.30
2022-12-17T03:07:37.814Z,15.73
2022-12-17T03:11:19.780Z,16.93
2022-12-17T03:15:02.757Z,16.03
2022-12-17T03:18:44.785Z,14.87
2022-12-17T03:22:26.764Z,15.70
2022-12-17T03:26:08.773Z,19.53
2022-12-17T03:29:50.745Z,16.50
2022-12-17T03:33:33.958Z,16.17
2022-12-17T03:37:15.902Z,14.97
2022-12-17T03:40:57.135Z,16.37
2022-12-17T03:44:39.788Z,16.40
2022-12-17T03:48:27.078Z,16.00
2022-12-17T03:52:23.476Z,16.87
2022-12-17T03:56:01.762Z,19.53
2022-12-17T03:59:43.788Z,16.30
2022-12-17T04:03:25.879Z,18.17
2022-12-17T04:07:07.367Z,17.20
2022-12-17T04:10:50.642Z,17.73
2022-12-17T04:14:31.551Z,18.47
2022-12-17T04:18:13.832Z,17.97
2022-12-17T04:21:58.209Z,16.87
2022-12-17T04:25:40.840Z,17.63
2022-12-17T04:29:23.859Z,19.73
2022-12-17T04:33:05.854Z,20.97
2022-12-17T04:36:47.067Z,17.13
2022-12-17T04:40:30.832Z,19.67
2022-12-17T04:44:12.972Z,19.83
2022-12-17T04:47:55.579Z,19.40
2022-12-17T04:51:40.829Z,15.67
2022-12-17T04:55:22.368Z,19.30
2022-12-17T04:59:07.255Z,18.60
2022-12-17T05:02:50.044Z,18.90
2022-12-17T05:06:33.289Z,19.37
2022-12-17T05:10:14.872Z,19.00
2022-12-17T05:13:55.853Z,20.17
2022-12-17T05:17:37.014Z,17.47
2022-12-17T05:21:23.389Z,17.70
2022-12-17T05:25:06.637Z,16.20
2022-12-17T05:28:48.457Z,19.43
2022-12-17T05:32:32.948Z,17.67
2022-12-17T05:36:18.494Z,25.30
2022-12-17T05:40:00.086Z,18.67
2022-12-17T05:43:43.908Z,19.00
2022-12-17T05:47:25.920Z,19.00
2022-12-17T05:51:08.928Z,19.23
2022-12-17T05:54:53.117Z,16.40
2022-12-17T05:58:34.432Z,14.93
2022-12-17T06:02:17.986Z,16.97
2022-12-17T06:06:00.910Z,16.03
2022-12-17T06:09:45.967Z,18.00
2022-12-17T06:13:27.973Z,17.10
2022-12-17T06:17:11.297Z,20.80
2022-12-17T06:21:03.941Z,20.53
2022-12-17T06:24:46.399Z,18.57
2022-12-17T06:28:29.761Z,14.10
2022-12-17T06:32:11.934Z,17.27
2022-12-17T06:35:54.103Z,19.97
2022-12-17T06:39:35.018Z,21.07
2022-12-17T06:43:25.025Z,22.30
2022-12-17T06:47:07.249Z,21.30
2022-12-17T06:50:50.141Z,19.13
2022-12-17T06:54:36.973Z,19.40
2022-12-17T06:58:19.969Z,18.80
2022-12-17T07:02:01.328Z,20.30
2022-12-17T07:05:44.077Z,18.23
2022-12-17T07:09:25.239Z,19.17
2022-12-17T07:13:07.433Z,19.80
2022-12-17T07:16:48.993Z,21.17
2022-12-17T07:20:31.434Z,21.70
2022-12-17T07:24:14.023Z,19.90
2022-12-17T07:27:56.067Z,21.60
2022-12-17T07:31:39.125Z,19.80
2022-12-17T07:35:21.014Z,24.23
2022-12-17T07:39:04.072Z,24.03
2022-12-17T07:42:45.115Z,21.10
2022-12-17T07:46:26.348Z,20.97
2022-12-17T07:50:08.752Z,22.60
2022-12-17T07:53:49.719Z,25.07
2022-12-17T07:57:30.973Z,22.20
2022-12-17T08:01:13.339Z,21.63
2022-12-17T08:04:54.423Z,21.93
2022-12-17T08:08:37.080Z,21.70
2022-12-17T08:12:26.331Z,21.80
2022-12-17T08:16:08.181Z,20.60
2022-12-17T08:19:49.500Z,22.87
2022-12-17T08:23:31.129Z,21.77
2022-12-17T08:27:13.505Z,22.33
2022-12-17T08:30:54.722Z,22.67
2022-12-17T08:34:37.926Z,20.67
2022-12-17T08:38:22.782Z,22.17
2022-12-17T08:42:04.635Z,22.20
2022-12-17T08:45:47.304Z,21.60
2022-12-17T08:49:28.257Z,21.53
2022-12-17T08:53:16.747Z,22.03
2022-12-17T08:56:57.737Z,20.90
2022-12-17T09:00:39.025Z,23.03
2022-12-17T09:04:21.663Z,22.53
2022-12-17T09:08:02.783Z,20.30
2022-12-17T09:11:43.759Z,21.20
2022-12-17T09:15:25.610Z,19.67
2022-12-17T09:19:06.813Z,20.43
2022-12-17T09:22:49.149Z,20.67
2022-12-17T09:26:29.962Z,20.60
2022-12-17T09:30:10.699Z,20.57
2022-12-17T09:33:51.781Z,20.33
2022-12-17T09:37:32.672Z,20.20
2022-12-17T09:41:20.595Z,20.83
2022-12-17T09:45:09.593Z,23.73
2022-12-17T09:48:57.479Z,20.13
2022-12-17T09:52:42.943Z,21.50
2022-12-17T09:56:28.095Z,19.53
2022-12-17T10:00:09.246Z,18.73
2022-12-17T10:03:54.891Z,19.70
2022-12-17T10:07:50.416Z,18.57
2022-12-17T10:11:39.692Z,17.40
2022-12-17T10:15:21.034Z,18.90
2022-12-17T10:19:02.841Z,18.97
2022-12-17T10:22:44.408Z,20.13
2022-12-17T10:26:25.286Z,19.17
2022-12-17T10:30:07.818Z,19.80
2022-12-17T10:34:08.179Z,19.10
2022-12-17T10:37:52.601Z,18.80
2022-12-17T10:41:40.820Z,17.80
2022-12-17T10:45:41.119Z,20.13
2022-12-17T10:49:24.174Z,18.10
2022-12-17T10:53:07.108Z,19.53
2022-12-17T10:56:48.281Z,18.40
2022-12-17T11:00:50.228Z,17.27
2022-12-17T11:04:43.414Z,16.30
2022-12-17T11:08:25.632Z,18.27
2022-12-17T11:12:08.953Z,18.50
2022-12-17T11:15:56.531Z,19.20
2022-12-17T11:19:49.913Z,18.00
2022-12-17T11:23:36.732Z,18.63
2022-12-17T11:27:21.324Z,19.27
2022-12-17T11:31:11.309Z,18.23
2022-12-17T11:35:02.459Z,21.13
2022-12-17T11:38:51.950Z,19.83
2022-12-17T11:42:43.234Z,20.43
2022-12-17T11:46:35.935Z,20.60
2022-12-17T11:50:25.921Z,20.73
2022-12-17T11:54:17.499Z,17.03
2022-12-17T11:58:05.953Z,20.30
2022-12-17T12:01:56.746Z,21.40
2022-12-17T12:05:54.925Z,20.03
2022-12-17T12:09:45.629Z,20.57
2022-12-17T12:13:35.017Z,22.30
2022-12-17T12:17:29.113Z,20.87
2022-12-17T12:21:29.329Z,19.40
2022-12-17T12:25:25.642Z,21.07
2022-12-17T12:29:16.096Z,19.20
2022-12-17T12:33:10.256Z,19.93
2022-12-17T12:36:52.971Z,20.10
2022-12-17T12:40:41.501Z,19.60
2022-12-17T12:44:33.073Z,21.90
2022-12-17T12:48:19.696Z,20.10
2022-12-17T12:52:01.157Z,20.27
2022-12-17T12:55:42.309Z,20.47
2022-12-17T12:59:30.361Z,21.57
2022-12-17T13:03:11.735Z,21.73
2022-12-17T13:06:50.860Z,23.03
2022-12-17T13:10:29.357Z,22.87
2022-12-17T13:13:56.795Z,25.47
2022-12-17T13:17:32.333Z,22.70
2022-12-17T13:21:01.406Z,22.53
2022-12-17T13:24:28.299Z,23.97
2022-12-17T13:27:52.258Z,23.20
2022-12-17T13:31:19.420Z,24.00
2022-12-17T13:34:58.585Z,22.90
2022-12-17T13:38:30.902Z,25.00
2022-12-17T13:41:56.504Z,23.57
2022-12-17T13:45:23.829Z,21.37
2022-12-17T13:48:54.641Z,22.67
2022-12-17T13:52:21.787Z,23.80
2022-12-17T13:55:51.926Z,22.50
2022-12-17T13:59:22.999Z,21.77
2022-12-17T14:02:46.900Z,23.60
2022-12-17T14:06:12.739Z,22.37
2022-12-17T14:09:41.375Z,23.17
2022-12-17T14:13:08.587Z,21.70
2022-12-17T14:16:34.003Z,19.73
2022-12-17T14:20:01.165Z,26.30
2022-12-17T14:23:28.646Z,25.80
2022-12-17T14:26:53.929Z,27.90
2022-12-17T14:30:23.996Z,25.20
2022-12-17T14:34:00.993Z,45.33
2022-12-17T14:37:26.764Z,55.30
2022-12-17T14:40:50.684Z,47.60
2022-12-17T14:44:21.822Z,24.53
2022-12-17T14:47:55.002Z,30.83
2022-12-17T14:51:28.695Z,28.03
2022-12-17T14:54:57.053Z,64.20
2022-12-17T14:58:24.339Z,37.57
2022-12-17T15:01:54.184Z,26.50
2022-12-17T15:05:19.854Z,26.90
2022-12-17T15:08:47.189Z,30.90
2022-12-17T15:12:11.872Z,27.63
2022-12-17T15:15:36.356Z,34.50
2022-12-17T15:19:01.024Z,38.30
2022-12-17T15:22:25.537Z,56.70
2022-12-17T15:25:52.318Z,28.30
2022-12-17T15:29:16.411Z,41.63
2022-12-17T15:32:40.498Z,30.33
2022-12-17T15:36:04.932Z,29.90
2022-12-17T15:39:29.433Z,30.83
2022-12-17T15:43:12.785Z,31.47
2022-12-17T15:46:37.591Z,30.57
2022-12-17T15:50:01.535Z,29.63
2022-12-17T15:53:29.860Z,28.17
2022-12-17T15:56:55.589Z,29.90
2022-12-17T16:00:21.313Z,30.23
2022-12-17T16:03:45.505Z,30.83
2022-12-17T16:07:12.718Z,28.73
2022-12-17T16:10:38.658Z,28.30
2022-12-17T16:14:09.744Z,25.77
2022-12-17T16:17:34.793Z,24.70
2022-12-17T16:21:03.845Z,29.90
2022-12-17T16:24:27.444Z,30.47
2022-12-17T16:27:51.159Z,27.07
2022-12-17T16:31:16.586Z,25.03
2022-12-17T16:34:41.751Z,22.87
2022-12-17T16:38:05.516Z,27.63
2022-12-17T16:41:29.191Z,29.07
2022-12-17T16:44:52.812Z,28.97
2022-12-17T16:48:17.354Z,28.30
2022-12-17T16:51:45.944Z,24.40
2022-12-17T16:59:53.879Z,24.53
2022-12-17T17:03:17.777Z,25.97
2022-12-17T17:06:45.276Z,26.00
2022-12-17T17:10:09.526Z,24.23
2022-12-17T17:13:33.228Z,26.47
2022-12-17T17:16:56.875Z,27.17
2022-12-17T17:20:20.503Z,26.80
2022-12-17T17:23:46.198Z,25.40
2022-12-17T17:27:10.366Z,24.37
2022-12-17T17:30:34.178Z,23.30
2022-12-17T17:33:57.867Z,24.67
2022-12-17T17:37:21.525Z,26.57
2022-12-17T17:40:46.641Z,27.20
2022-12-17T17:44:13.786Z,24.67
2022-12-17T17:47:37.461Z,25.07
2022-12-17T17:51:03.263Z,26.77
2022-12-17T17:54:26.982Z,23.17
2022-12-17T17:57:51.989Z,27.77
2022-12-17T18:01:20.271Z,27.50
2022-12-17T18:04:44.039Z,32.77
2022-12-17T18:08:07.645Z,36.10
2022-12-17T18:11:32.635Z,39.67
2022-12-17T18:18:40.672Z,26.77
2022-12-17T18:22:04.385Z,27.67
2022-12-17T18:25:30.490Z,30.40
2022-12-17T18:28:58.804Z,27.30
2022-12-17T18:32:23.735Z,27.73
2022-12-17T18:35:47.344Z,26.20
2022-12-17T18:39:14.987Z,26.77
2022-12-17T18:42:55.889Z,29.10
2022-12-17T18:46:23.306Z,28.70
2022-12-17T18:49:48.573Z,33.33
2022-12-17T18:53:12.340Z,31.30
2022-12-17T18:57:00.537Z,30.00
2022-12-17T19:00:21.363Z,28.67
2022-12-17T19:03:45.098Z,28.23
2022-12-17T19:07:10.367Z,27.70
2022-12-17T19:10:37.566Z,30.30
2022-12-17T19:14:01.286Z,28.67
2022-12-17T19:17:26.319Z,26.17
2022-12-17T19:20:49.980Z,26.90
2022-12-17T19:24:16.826Z,30.40
2022-12-17T19:27:40.475Z,29.93
2022-12-17T19:31:04.661Z,31.70
2022-12-17T19:34:28.320Z,32.90
2022-12-17T19:37:53.196Z,33.80
2022-12-17T19:41:19.026Z,30.17
2022-12-17T19:44:45.704Z,31.93
2022-12-17T19:48:16.629Z,30.30
2022-12-17T19:51:46.164Z,35.10
2022-12-17T19:55:10.855Z,31.20
2022-12-17T19:58:36.321Z,34.50
2022-12-17T20:02:03.592Z,34.63
2022-12-17T20:05:27.373Z,33.67
2022-12-17T20:08:54.143Z,33.43
2022-12-17T20:12:24.288Z,32.90
2022-12-17T20:15:49.647Z,36.33
2022-12-17T20:19:25.089Z,31.93
2022-12-17T20:22:48.801Z,30.47
2022-12-17T20:26:13.281Z,32.70
2022-12-17T20:29:49.154Z,33.60
2022-12-17T20:33:19.823Z,30.50
2022-12-17T20:36:51.856Z,31.10
2022-12-17T20:40:15.706Z,30.27
2022-12-17T20:43:41.867Z,29.97
2022-12-17T20:47:09.213Z,29.80
2022-12-17T20:50:42.872Z,30.57
2022-12-17T20:54:10.458Z,31.23
2022-12-17T20:57:34.511Z,30.87
2022-12-17T21:01:07.262Z,29.43
2022-12-17T21:04:34.391Z,27.10
2022-12-17T21:08:00.128Z,28.87
2022-12-17T21:11:26.954Z,27.00
2022-12-17T21:14:55.459Z,27.60
2022-12-17T21:18:22.083Z,26.70
2022-12-17T21:21:49.212Z,24.60
2022-12-17T21:25:15.561Z,25.00
2022-12-17T21:28:41.588Z,27.07
2022-12-17T21:32:06.825Z,27.60
2022-12-17T21:35:30.746Z,32.70
2022-12-17T21:38:55.547Z,31.93
2022-12-17T21:42:44.455Z,28.33
2022-12-17T21:46:13.835Z,26.77
2022-12-17T21:49:38.142Z,28.77
2022-12-17T21:53:01.871Z,30.10
2022-12-17T21:56:26.427Z,28.07
2022-12-17T21:59:52.401Z,30.17
2022-12-17T22:03:24.212Z,28.00
2022-12-17T22:06:53.688Z,27.77
2022-12-17T22:10:45.184Z,28.87
2022-12-17T22:14:21.195Z,28.73
2022-12-17T22:17:49.589Z,29.97
2022-12-17T22:21:17.633Z,26.60
2022-12-17T22:24:50.340Z,29.43
2022-12-17T22:28:16.559Z,30.00
2022-12-17T22:32:01.112Z,26.77
2022-12-17T22:36:54.070Z,28.13
2022-12-17T22:44:28.681Z,28.87
2022-12-17T22:44:41.439Z,35.60
2022-12-17T22:47:07.671Z,28.17
2022-12-17T22:50:38.994Z,29.93
2022-12-17T22:54:15.023Z,28.13
2022-12-17T22:57:42.084Z,25.97
2022-12-17T23:01:10.049Z,27.07
2022-12-17T23:04:34.034Z,28.33
2022-12-17T23:07:59.750Z,24.87
2022-12-17T23:11:25.770Z,27.63
2022-12-17T23:14:49.549Z,28.07
2022-12-17T23:18:14.107Z,29.17
2022-12-17T23:21:38.640Z,30.07
2022-12-17T23:25:11.018Z,30.07
2022-12-17T23:28:34.869Z,29.90
2022-12-17T23:32:03.419Z,26.20
2022-12-17T23:35:27.999Z,28.63
2022-12-17T23:38:52.287Z,25.50
2022-12-17T23:42:17.433Z,30.23
2022-12-17T23:45:45.815Z,27.20
2022-12-17T23:49:10.123Z,27.60
2022-12-17T23:52:34.267Z,28.03
2022-12-17T23:56:04.996Z,27.47
2022-12-17T23:59:30.535Z,28.40
